createdAt,value
2023-02-19T00:01:52.503Z,7.85
2023-02-19T00:04:24.797Z,7.85
2023-02-19T00:06:53.205Z,7.97
2023-02-19T00:09:21.828Z,8.40
2023-02-19T00:11:50.097Z,7.82
2023-02-19T00:14:21.432Z,8.02
2023-02-19T00:16:50.094Z,8.15
2023-02-19T00:19:20.480Z,8.00
2023-02-19T00:21:52.230Z,7.13
2023-02-19T00:24:21.376Z,7.63
2023-02-19T00:26:49.652Z,7.75
2023-02-19T00:29:20.647Z,7.30
2023-02-19T00:31:49.197Z,7.18
2023-02-19T00:34:17.091Z,6.80
2023-02-19T00:36:45.590Z,7.00
2023-02-19T00:39:16.219Z,6.93
2023-02-19T00:41:46.660Z,8.05
2023-02-19T00:44:15.138Z,7.97
2023-02-19T00:46:46.280Z,8.27
2023-02-19T00:49:18.384Z,8.50
2023-02-19T00:51:47.598Z,9.20
2023-02-19T00:54:15.542Z,8.30
2023-02-19T00:56:43.925Z,8.20
2023-02-19T00:59:11.739Z,7.53
2023-02-19T01:01:40.304Z,6.65
2023-02-19T01:04:08.464Z,7.72
2023-02-19T01:06:37.301Z,7.82
2023-02-19T01:09:07.421Z,8.35
2023-02-19T01:11:36.142Z,7.93
2023-02-19T01:14:05.187Z,7.90
2023-02-19T01:16:33.357Z,7.72
2023-02-19T01:19:01.327Z,7.28
2023-02-19T01:21:31.297Z,7.25
2023-02-19T01:23:59.996Z,7.38
2023-02-19T01:26:31.670Z,7.68
2023-02-19T01:29:01.019Z,6.45
2023-02-19T01:31:30.460Z,7.18
2023-02-19T01:34:00.766Z,6.88
2023-02-19T01:36:30.463Z,6.22
2023-02-19T01:39:01.064Z,6.15
2023-02-19T01:41:29.492Z,6.20
2023-02-19T01:44:01.931Z,6.15
2023-02-19T01:46:35.569Z,6.40
2023-02-19T01:49:11.080Z,5.60
2023-02-19T01:52:01.514Z,5.80
2023-02-19T01:54:32.906Z,5.78
2023-02-19T01:57:04.876Z,6.40
2023-02-19T01:59:34.197Z,6.18
2023-02-19T02:02:02.642Z,6.10
2023-02-19T02:04:34.013Z,5.72
2023-02-19T02:07:24.614Z,6.00
2023-02-19T02:10:12.696Z,6.07
2023-02-19T02:12:40.925Z,5.30
2023-02-19T02:15:09.599Z,5.47
2023-02-19T02:18:04.000Z,4.93
2023-02-19T02:20:40.836Z,5.60
2023-02-19T02:23:50.365Z,5.43
2023-02-19T02:26:55.871Z,5.90
2023-02-19T02:29:53.245Z,5.90
2023-02-19T02:32:27.316Z,5.70
2023-02-19T02:35:05.549Z,5.65
2023-02-19T02:37:37.638Z,5.70
2023-02-19T02:40:09.808Z,5.65
2023-02-19T02:42:40.810Z,5.10
2023-02-19T02:45:36.580Z,6.00
2023-02-19T02:48:25.179Z,4.78
2023-02-19T02:51:10.660Z,5.22
2023-02-19T02:54:39.714Z,5.93
2023-02-19T02:57:15.182Z,5.27
2023-02-19T02:59:53.939Z,5.22
2023-02-19T03:02:31.219Z,5.30
2023-02-19T03:05:34.309Z,4.80
2023-02-19T03:08:12.196Z,5.38
2023-02-19T03:10:51.472Z,5.80
2023-02-19T03:13:46.528Z,5.13
2023-02-19T03:16:42.952Z,5.15
2023-02-19T03:19:22.196Z,5.00
2023-02-19T03:21:57.668Z,4.60
2023-02-19T03:24:52.493Z,5.35
2023-02-19T03:27:22.295Z,5.03
2023-02-19T03:29:59.226Z,4.60
2023-02-19T03:32:36.761Z,4.30
2023-02-19T03:35:27.652Z,4.80
2023-02-19T03:38:23.019Z,4.88
2023-02-19T03:41:07.868Z,10.25
2023-02-19T03:44:08.375Z,8.20
2023-02-19T03:47:05.459Z,7.55
2023-02-19T03:49:50.152Z,7.22
2023-02-19T03:52:42.236Z,9.80
2023-02-19T03:55:17.382Z,9.65
2023-02-19T03:57:59.036Z,8.20
2023-02-19T04:00:45.306Z,7.65
2023-02-19T04:05:58.875Z,6.60
2023-02-19T04:08:28.469Z,6.47
2023-02-19T04:11:03.195Z,5.45
2023-02-19T04:13:48.979Z,6.38
2023-02-19T04:16:22.470Z,5.05
2023-02-19T04:18:55.452Z,5.25
2023-02-19T04:21:24.240Z,4.82
2023-02-19T04:23:52.717Z,5.13
2023-02-19T04:26:23.366Z,4.88
2023-02-19T04:28:51.429Z,4.82
2023-02-19T04:31:19.819Z,4.85
2023-02-19T04:33:48.080Z,5.05
2023-02-19T04:36:15.835Z,5.22
2023-02-19T04:38:44.128Z,5.53
2023-02-19T04:41:12.419Z,5.20
2023-02-19T04:43:40.736Z,5.60
2023-02-19T04:46:08.831Z,5.63
2023-02-19T04:48:37.080Z,5.43
2023-02-19T04:51:08.573Z,5.88
2023-02-19T04:53:37.754Z,6.78
2023-02-19T04:56:11.698Z,7.30
2023-02-19T04:58:41.571Z,7.68
2023-02-19T05:01:10.951Z,8.07
2023-02-19T05:03:39.543Z,8.00
2023-02-19T05:06:11.019Z,7.32
2023-02-19T05:08:40.142Z,5.70
2023-02-19T05:11:11.134Z,5.82
2023-02-19T05:13:40.201Z,6.03
2023-02-19T05:16:15.070Z,6.40
2023-02-19T05:18:45.374Z,7.63
2023-02-19T05:21:15.904Z,8.23
2023-02-19T05:23:44.741Z,8.85
2023-02-19T05:26:19.423Z,9.40
2023-02-19T05:28:50.152Z,9.32
2023-02-19T05:31:18.986Z,8.75
2023-02-19T05:33:51.470Z,8.40
2023-02-19T05:36:21.801Z,7.10
2023-02-19T05:38:57.768Z,6.00
2023-02-19T05:41:28.513Z,6.00
2023-02-19T05:43:58.046Z,5.97
2023-02-19T05:46:29.971Z,6.00
2023-02-19T05:49:01.426Z,6.38
2023-02-19T05:51:30.154Z,6.50
2023-02-19T05:53:58.422Z,6.20
2023-02-19T05:56:40.328Z,4.97
2023-02-19T05:59:18.339Z,4.38
2023-02-19T06:01:46.510Z,4.20
2023-02-19T06:04:15.812Z,4.22
2023-02-19T06:06:43.769Z,4.28
2023-02-19T06:09:12.450Z,3.63
2023-02-19T06:11:41.088Z,3.90
2023-02-19T06:14:09.260Z,3.78
2023-02-19T06:16:37.412Z,3.95
2023-02-19T06:19:05.775Z,3.72
2023-02-19T06:21:34.056Z,3.90
2023-02-19T06:24:07.022Z,3.25
2023-02-19T06:26:35.125Z,3.13
2023-02-19T06:29:03.845Z,3.50
2023-02-19T06:31:32.275Z,3.78
2023-02-19T06:34:04.674Z,3.95
2023-02-19T06:36:32.720Z,3.42
2023-02-19T06:39:02.297Z,3.10
2023-02-19T06:41:30.149Z,3.60
2023-02-19T06:43:59.200Z,3.72
2023-02-19T06:46:27.124Z,3.50
2023-02-19T06:48:55.369Z,3.53
2023-02-19T06:51:27.478Z,3.40
2023-02-19T06:53:56.273Z,3.65
2023-02-19T06:56:28.354Z,3.95
2023-02-19T06:59:01.641Z,3.42
2023-02-19T07:01:49.475Z,3.75
2023-02-19T07:04:18.063Z,3.53
2023-02-19T07:06:45.825Z,5.13
2023-02-19T07:09:14.066Z,4.68
2023-02-19T07:11:42.730Z,5.50
2023-02-19T07:14:16.030Z,5.53
2023-02-19T07:16:44.706Z,5.60
2023-02-19T07:19:13.247Z,5.20
2023-02-19T07:21:42.658Z,5.68
2023-02-19T07:24:10.885Z,5.75
2023-02-19T07:26:39.059Z,5.90
2023-02-19T07:29:07.944Z,5.13
2023-02-19T07:31:36.415Z,5.78
2023-02-19T07:34:05.094Z,5.90
2023-02-19T07:36:32.928Z,6.00
2023-02-19T07:39:01.043Z,6.20
2023-02-19T07:41:28.959Z,5.82
2023-02-19T07:43:59.358Z,5.90
2023-02-19T07:46:27.748Z,5.68
2023-02-19T07:48:56.173Z,7.22
2023-02-19T07:51:24.134Z,6.20
2023-02-19T07:53:52.403Z,5.63
2023-02-19T07:56:21.174Z,5.35
2023-02-19T07:58:49.673Z,4.97
2023-02-19T08:01:40.221Z,5.40
2023-02-19T08:04:08.846Z,5.68
2023-02-19T08:06:36.586Z,6.15
2023-02-19T08:09:06.112Z,5.60
2023-02-19T08:11:52.714Z,4.72
2023-02-19T08:14:25.082Z,4.80
2023-02-19T08:16:53.796Z,4.10
2023-02-19T08:19:22.659Z,4.50
2023-02-19T08:21:50.982Z,4.97
2023-02-19T08:24:19.313Z,4.40
2023-02-19T08:26:47.207Z,4.65
2023-02-19T08:29:15.810Z,6.20
2023-02-19T08:31:43.762Z,7.95
2023-02-19T08:34:12.102Z,8.50
2023-02-19T08:36:40.287Z,7.10
2023-02-19T08:39:08.639Z,7.63
2023-02-19T08:41:36.658Z,6.50
2023-02-19T08:44:04.940Z,6.60
2023-02-19T08:46:34.412Z,7.00
2023-02-19T08:49:02.746Z,6.18
2023-02-19T08:51:30.897Z,6.00
2023-02-19T08:53:59.118Z,6.50
2023-02-19T08:56:26.883Z,6.10
2023-02-19T08:58:55.119Z,5.68
2023-02-19T09:01:24.026Z,5.13
2023-02-19T09:03:53.528Z,5.80
2023-02-19T09:06:21.515Z,6.13
2023-02-19T09:08:50.021Z,5.65
2023-02-19T09:11:18.390Z,6.50
2023-02-19T09:13:46.706Z,7.35
2023-02-19T09:16:14.546Z,6.60
2023-02-19T09:18:43.455Z,6.68
2023-02-19T09:21:11.856Z,6.50
2023-02-19T09:23:40.725Z,7.03
2023-02-19T09:26:11.691Z,7.38
2023-02-19T09:28:42.165Z,7.05
2023-02-19T09:31:13.127Z,6.32
2023-02-19T09:33:46.057Z,6.28
2023-02-19T09:36:16.120Z,6.30
2023-02-19T09:38:44.976Z,6.30
2023-02-19T09:41:31.006Z,7.20
2023-02-19T09:44:02.103Z,5.85
2023-02-19T09:46:39.404Z,6.40
2023-02-19T09:49:14.230Z,5.95
2023-02-19T09:51:47.600Z,4.80
2023-02-19T09:54:23.168Z,5.07
2023-02-19T09:56:53.527Z,5.55
2023-02-19T09:59:26.354Z,4.97
2023-02-19T10:02:03.244Z,5.80
2023-02-19T10:04:31.934Z,5.57
2023-02-19T10:07:03.790Z,6.00
2023-02-19T10:09:35.298Z,6.38
2023-02-19T10:12:03.420Z,6.10
2023-02-19T10:14:42.574Z,6.30
2023-02-19T10:17:21.223Z,5.70
2023-02-19T10:19:49.928Z,6.68
2023-02-19T10:22:19.181Z,6.53
2023-02-19T10:24:52.374Z,6.72
2023-02-19T10:27:20.887Z,6.80
2023-02-19T10:29:51.468Z,7.25
2023-02-19T10:32:30.040Z,6.55
2023-02-19T10:35:12.467Z,6.20
2023-02-19T10:37:49.057Z,5.40
2023-02-19T10:40:20.042Z,4.18
2023-02-19T10:42:50.754Z,3.75
2023-02-19T10:45:34.731Z,3.33
2023-02-19T10:48:03.841Z,4.32
2023-02-19T10:50:39.602Z,4.00
2023-02-19T10:53:25.337Z,3.90
2023-02-19T10:56:13.217Z,4.07
2023-02-19T10:58:45.209Z,3.38
2023-02-19T11:01:23.680Z,4.03
2023-02-19T11:03:53.863Z,4.53
2023-02-19T11:06:27.166Z,7.25
2023-02-19T11:09:01.418Z,4.65
2023-02-19T11:11:36.884Z,4.40
2023-02-19T11:14:17.245Z,4.50
2023-02-19T11:17:00.303Z,3.92
2023-02-19T11:19:49.034Z,4.63
2023-02-19T11:22:42.213Z,4.22
2023-02-19T11:25:17.336Z,4.80
2023-02-19T11:28:02.890Z,5.05
2023-02-19T11:30:33.252Z,5.05
2023-02-19T11:33:20.065Z,4.95
2023-02-19T11:35:49.923Z,5.00
2023-02-19T11:38:20.708Z,4.68
2023-02-19T11:41:24.087Z,4.97
2023-02-19T11:44:01.473Z,5.22
2023-02-19T11:46:32.510Z,5.07
2023-02-19T11:49:09.345Z,5.00
2023-02-19T11:51:52.721Z,5.57
2023-02-19T11:54:32.919Z,5.13
2023-02-19T11:57:26.856Z,5.03
2023-02-19T12:00:26.139Z,5.15
2023-02-19T12:03:12.604Z,5.40
2023-02-19T12:09:15.140Z,5.40
2023-02-19T12:12:01.575Z,5.53
2023-02-19T12:15:08.330Z,5.90
2023-02-19T12:17:58.636Z,5.07
2023-02-19T12:20:43.020Z,5.80
2023-02-19T12:23:44.753Z,14.85
2023-02-19T12:26:29.741Z,5.00
2023-02-19T12:29:18.948Z,4.47
2023-02-19T12:32:03.156Z,5.03
2023-02-19T12:34:40.539Z,5.78
2023-02-19T12:37:28.198Z,5.25
2023-02-19T12:40:04.008Z,4.80
2023-02-19T12:42:51.263Z,5.20
2023-02-19T12:45:34.019Z,5.40
2023-02-19T12:48:20.153Z,4.65
2023-02-19T12:50:53.652Z,4.68
2023-02-19T12:53:33.803Z,4.78
2023-02-19T12:56:10.932Z,4.93
2023-02-19T12:58:48.614Z,5.35
2023-02-19T13:01:29.218Z,5.00
2023-02-19T13:04:19.070Z,4.82
2023-02-19T13:06:58.094Z,5.60
2023-02-19T13:09:31.736Z,5.20
2023-02-19T13:12:07.795Z,5.10
2023-02-19T13:14:49.696Z,4.30
2023-02-19T13:17:32.362Z,4.38
2023-02-19T13:20:27.619Z,4.43
2023-02-19T13:23:43.359Z,4.40
2023-02-19T13:26:38.432Z,4.20
2023-02-19T13:29:25.040Z,4.88
2023-02-19T13:32:23.610Z,4.85
2023-02-19T13:35:13.139Z,5.22
2023-02-19T13:37:41.693Z,4.30
2023-02-19T13:40:28.659Z,5.53
2023-02-19T13:42:59.599Z,4.13
2023-02-19T13:45:37.422Z,5.72
2023-02-19T13:48:31.885Z,5.03
2023-02-19T13:51:21.953Z,4.55
2023-02-19T13:53:59.896Z,5.22
2023-02-19T13:56:31.681Z,5.03
2023-02-19T13:59:13.690Z,7.50
2023-02-19T14:01:54.066Z,4.95
2023-02-19T14:04:41.723Z,5.60
2023-02-19T14:07:10.355Z,5.35
2023-02-19T14:09:39.513Z,4.93
2023-02-19T14:12:10.694Z,5.15
2023-02-19T14:14:49.779Z,6.15
2023-02-19T14:17:36.943Z,5.13
2023-02-19T14:20:33.399Z,4.88
2023-02-19T14:23:15.643Z,4.85
2023-02-19T14:25:52.342Z,4.78
2023-02-19T14:28:30.371Z,5.38
2023-02-19T14:31:01.308Z,5.05
2023-02-19T14:33:35.217Z,5.35
2023-02-19T14:36:12.418Z,5.43
2023-02-19T14:39:31.543Z,5.30
2023-02-19T14:42:02.410Z,5.38
2023-02-19T14:44:35.793Z,4.45
2023-02-19T14:47:05.916Z,5.07
2023-02-19T14:49:49.861Z,5.15
2023-02-19T14:52:51.908Z,4.03
2023-02-19T14:55:38.215Z,4.47
2023-02-19T14:58:11.157Z,3.90
2023-02-19T15:00:41.774Z,3.95
2023-02-19T15:03:30.479Z,3.65
2023-02-19T15:06:07.812Z,3.10
2023-02-19T15:08:40.188Z,3.17
2023-02-19T15:11:12.837Z,3.70
2023-02-19T15:13:45.916Z,3.10
2023-02-19T15:16:20.193Z,2.50
2023-02-19T15:18:50.390Z,2.75
2023-02-19T15:21:26.769Z,2.20
2023-02-19T15:24:00.530Z,3.63
2023-02-19T15:26:43.685Z,2.90
2023-02-19T15:29:14.290Z,3.33
2023-02-19T15:31:47.603Z,2.70
2023-02-19T15:34:21.869Z,2.67
2023-02-19T15:36:53.556Z,2.53
2023-02-19T15:39:44.049Z,3.60
2023-02-19T15:42:20.229Z,4.63
2023-02-19T15:45:17.162Z,2.22
2023-02-19T15:47:59.327Z,2.40
2023-02-19T15:50:31.230Z,2.53
2023-02-19T15:53:05.192Z,2.80
2023-02-19T15:55:48.299Z,2.10
2023-02-19T15:58:29.157Z,2.83
2023-02-19T16:01:08.586Z,2.40
2023-02-19T16:03:37.583Z,2.40
2023-02-19T16:06:16.999Z,2.67
2023-02-19T16:08:47.253Z,2.28
2023-02-19T16:11:24.311Z,1.70
2023-02-19T16:13:52.908Z,2.60
2023-02-19T16:16:23.627Z,2.47
2023-02-19T16:18:53.341Z,2.03
2023-02-19T16:21:25.033Z,3.00
2023-02-19T16:24:16.070Z,1.75
2023-02-19T16:26:45.682Z,2.65
2023-02-19T16:29:33.249Z,3.25
2023-02-19T16:32:04.062Z,3.25
2023-02-19T16:34:50.940Z,3.17
2023-02-19T16:37:40.804Z,2.80
2023-02-19T16:40:43.758Z,2.80
2023-02-19T16:43:14.685Z,3.30
2023-02-19T16:45:47.806Z,3.28
2023-02-19T16:48:16.250Z,3.10
2023-02-19T16:50:46.495Z,2.90
2023-02-19T16:53:25.331Z,3.08
2023-02-19T16:55:53.626Z,3.25
2023-02-19T16:58:21.711Z,2.70
2023-02-19T17:00:50.109Z,3.40
2023-02-19T17:03:21.731Z,2.97
2023-02-19T17:05:51.282Z,3.25
2023-02-19T17:08:35.398Z,3.10
2023-02-19T17:11:06.720Z,2.88
2023-02-19T17:13:34.631Z,3.30
2023-02-19T17:16:02.934Z,3.30
2023-02-19T17:18:32.050Z,3.05
2023-02-19T17:21:10.290Z,2.95
2023-02-19T17:23:38.519Z,2.75
2023-02-19T17:26:06.709Z,2.95
2023-02-19T17:28:35.336Z,3.05
2023-02-19T17:31:03.675Z,3.10
2023-02-19T17:33:31.489Z,3.03
2023-02-19T17:36:00.324Z,2.80
2023-02-19T17:38:29.279Z,2.90
2023-02-19T17:40:57.854Z,3.10
2023-02-19T17:43:25.985Z,3.13
2023-02-19T17:45:54.496Z,3.05
2023-02-19T17:48:22.327Z,3.30
2023-02-19T17:50:52.448Z,2.70
2023-02-19T17:53:20.489Z,2.50
2023-02-19T17:55:48.728Z,3.10
2023-02-19T17:58:16.586Z,3.25
2023-02-19T18:00:44.841Z,4.07
2023-02-19T18:03:12.731Z,4.00
2023-02-19T18:05:40.999Z,3.90
2023-02-19T18:08:09.289Z,2.88
2023-02-19T18:10:38.448Z,2.50
2023-02-19T18:13:06.395Z,2.53
2023-02-19T18:15:35.130Z,4.00
2023-02-19T18:18:05.204Z,3.30
2023-02-19T18:20:33.447Z,3.00
2023-02-19T18:23:01.630Z,3.80
2023-02-19T18:25:29.842Z,3.03
2023-02-19T18:27:59.589Z,2.78
2023-02-19T18:30:28.953Z,2.60
2023-02-19T18:32:57.758Z,2.75
2023-02-19T18:35:26.110Z,2.90
2023-02-19T18:37:55.237Z,2.70
2023-02-19T18:40:26.204Z,2.70
2023-02-19T18:42:54.529Z,3.72
2023-02-19T18:45:22.970Z,4.40
2023-02-19T18:47:51.204Z,3.15
2023-02-19T18:50:21.414Z,4.18
2023-02-19T18:52:49.624Z,3.40
2023-02-19T18:55:18.413Z,3.50
2023-02-19T18:57:47.584Z,2.58
2023-02-19T19:00:23.271Z,3.00
2023-02-19T19:02:51.657Z,2.72
2023-02-19T19:05:23.353Z,2.80
2023-02-19T19:07:54.715Z,3.00
2023-02-19T19:10:24.508Z,3.28
2023-02-19T19:12:54.549Z,4.60
2023-02-19T19:15:25.341Z,4.25
2023-02-19T19:17:53.511Z,4.63
2023-02-19T19:20:24.177Z,4.95
2023-02-19T19:22:53.846Z,4.38
2023-02-19T19:25:35.292Z,4.38
2023-02-19T19:28:08.861Z,4.68
2023-02-19T19:30:43.922Z,3.30
2023-02-19T19:33:17.764Z,4.25
2023-02-19T19:35:48.291Z,3.75
2023-02-19T19:38:17.985Z,3.53
2023-02-19T19:40:51.142Z,4.32
2023-02-19T19:43:21.498Z,5.05
2023-02-19T19:45:51.066Z,4.15
2023-02-19T19:48:19.288Z,4.13
2023-02-19T19:50:48.386Z,3.63
2023-02-19T19:53:16.820Z,3.00
2023-02-19T19:55:45.380Z,3.10
2023-02-19T19:58:14.706Z,3.10
2023-02-19T20:00:45.299Z,3.35
2023-02-19T20:03:14.727Z,3.17
2023-02-19T20:05:43.512Z,2.88
2023-02-19T20:08:14.177Z,3.00
2023-02-19T20:10:45.410Z,3.20
2023-02-19T20:13:26.470Z,3.08
2023-02-19T20:15:57.213Z,3.47
2023-02-19T20:18:27.765Z,3.67
2023-02-19T20:20:58.900Z,2.90
2023-02-19T20:23:28.344Z,2.80
2023-02-19T20:25:58.768Z,3.17
2023-02-19T20:28:26.795Z,2.40
2023-02-19T20:30:59.621Z,2.13
2023-02-19T20:33:27.599Z,1.95
2023-02-19T20:35:57.252Z,2.13
2023-02-19T20:38:25.620Z,2.00
2023-02-19T20:40:53.991Z,1.83
2023-02-19T20:43:21.848Z,1.67
2023-02-19T20:45:50.276Z,10.50
2023-02-19T20:48:18.745Z,5.13
2023-02-19T20:50:47.137Z,3.00
2023-02-19T20:53:15.464Z,2.58
2023-02-19T20:55:43.647Z,2.20
2023-02-19T20:58:11.389Z,1.85
2023-02-19T21:00:39.714Z,1.83
2023-02-19T21:03:09.396Z,1.77
2023-02-19T21:05:38.652Z,1.80
2023-02-19T21:08:07.881Z,1.80
2023-02-19T21:10:35.890Z,2.30
2023-02-19T21:13:04.357Z,2.20
2023-02-19T21:15:32.802Z,2.15
2023-02-19T21:18:01.027Z,2.30
2023-02-19T21:20:29.074Z,2.03
2023-02-19T21:22:57.478Z,1.73
2023-02-19T21:25:25.499Z,2.00
2023-02-19T21:27:54.188Z,2.13
2023-02-19T21:30:22.207Z,2.30
2023-02-19T21:32:50.524Z,1.83
2023-02-19T21:35:18.806Z,2.10
2023-02-19T21:37:47.390Z,2.63
2023-02-19T21:40:15.293Z,2.60
2023-02-19T21:42:44.864Z,2.58
2023-02-19T21:45:13.232Z,2.63
2023-02-19T21:47:43.284Z,2.70
2023-02-19T21:50:11.368Z,2.80
2023-02-19T21:52:40.286Z,3.00
2023-02-19T21:55:08.338Z,2.70
2023-02-19T21:57:36.596Z,3.08
2023-02-19T22:00:07.112Z,2.95
2023-02-19T22:02:35.610Z,4.00
2023-02-19T22:05:03.996Z,2.72
2023-02-19T22:07:32.277Z,2.60
2023-02-19T22:10:00.217Z,2.60
2023-02-19T22:12:28.355Z,2.65
2023-02-19T22:14:56.189Z,2.85
2023-02-19T22:17:24.601Z,2.50
2023-02-19T22:19:52.695Z,2.70
2023-02-19T22:22:20.873Z,2.20
2023-02-19T22:24:49.022Z,2.10
2023-02-19T22:27:17.234Z,1.67
2023-02-19T22:29:45.414Z,1.50
2023-02-19T22:32:13.896Z,1.70
2023-02-19T22:34:42.238Z,1.48
2023-02-19T22:37:11.026Z,1.85
2023-02-19T22:39:39.129Z,1.52
2023-02-19T22:42:07.287Z,2.10
2023-02-19T22:44:35.734Z,1.92
2023-02-19T22:47:03.906Z,1.45
2023-02-19T22:49:31.692Z,1.20
2023-02-19T22:52:09.050Z,1.50
2023-02-19T22:54:37.561Z,1.70
2023-02-19T22:57:06.008Z,1.70
2023-02-19T22:59:33.863Z,1.60
2023-02-19T23:02:02.040Z,1.55
2023-02-19T23:04:30.041Z,1.70
2023-02-19T23:06:59.548Z,1.48
2023-02-19T23:09:29.529Z,1.80
2023-02-19T23:12:07.378Z,1.92
2023-02-19T23:14:35.931Z,1.95
2023-02-19T23:17:04.282Z,1.70
2023-02-19T23:19:33.139Z,1.83
2023-02-19T23:22:01.539Z,1.75
2023-02-19T23:24:29.335Z,1.70
2023-02-19T23:26:58.020Z,2.00
2023-02-19T23:29:27.169Z,1.83
2023-02-19T23:31:55.726Z,1.88
2023-02-19T23:34:24.725Z,1.95
2023-02-19T23:36:54.796Z,2.03
2023-02-19T23:39:22.990Z,1.80
2023-02-19T23:41:54.357Z,1.90
2023-02-19T23:44:24.079Z,2.00
2023-02-19T23:46:52.827Z,1.75
2023-02-19T23:49:21.016Z,1.80
2023-02-19T23:51:49.914Z,2.00
2023-02-19T23:54:17.853Z,1.80
2023-02-19T23:56:46.062Z,1.88
2023-02-19T23:59:14.096Z,2.22
